New Lexington, Ohio
Current Conditions -  °F | °C
As of 9:53 PM on Monday 22 Dec 2014 (Local Time) from KZZV Reporting Station
Broken Clouds Broken Clouds  
Wind Chill: 40°   Ceiling: 9000
Heat Index: 44°   Visibility: 10mi
Dew Point: 35°   Wind: 8mph
Humidity: 71%   Direction: 110°ESE
Pressure: 29.86"   Gusts: NA
Location:  39.71°N, 82.21°W
Report Text: KZZV 230253Z AUTO 11007KT 10SM BKN090 07/02 A2986 RMK AO2 SLP117 T00670017 58005
Loading
Personal Weather Stations






























Interactive Weather Map New forecast layout! Learn more

10-Day Weather Forecast

Advertisements
Track Severe Weather on mobile